Time;durP1;ratioP1;P1;durP2;ratioP2;P2;SDS_P1;SDS_P2;PMS_P1;PMS_P2;Temp;Humidity;BMP_temperature;BMP_pressure;BME280_temperature;BME280_humidity;BME280_pressure;Samples;Min_cycle;Max_cycle;Signal;HPM_P1;HPM_P2
2022/04/24 00:01:30;;;;;;;31.27;24.83;;;9.40;98.90;;;;;;6163653;23;20184;-91
2022/04/24 00:04:05;;;;;;;32.70;26.05;;;9.40;99.00;;;;;;6140954;23;20253;-91
2022/04/24 00:09:19;;;;;;;32.92;25.80;;;9.30;99.10;;;;;;6254154;23;20181;-91
2022/04/24 00:11:59;;;;;;;32.95;25.65;;;9.30;99.20;;;;;;6232556;23;20161;-91
2022/04/24 00:14:41;;;;;;;33.63;25.38;;;9.20;99.30;;;;;;6258583;22;20267;-91
2022/04/24 00:17:20;;;;;;;33.72;25.10;;;9.20;99.40;;;;;;6257117;23;20173;-91
2022/04/24 00:20:05;;;;;;;33.45;26.08;;;9.20;99.50;;;;;;6193610;23;20179;-92
2022/04/24 00:25:56;;;;;;;31.63;25.30;;;9.10;99.50;;;;;;6145972;23;20168;-91
2022/04/24 00:28:46;;;;;;;33.67;25.75;;;9.10;99.80;;;;;;6081062;23;20173;-90
2022/04/24 00:31:29;;;;;;;34.00;26.40;;;9.10;99.70;;;;;;6007892;23;20240;-91
2022/04/24 00:33:59;;;;;;;30.45;25.35;;;9.10;99.90;;;;;;6083284;23;20649;-90
2022/04/24 00:36:35;;;;;;;34.60;26.85;;;9.10;99.80;;;;;;6081235;23;20212;-91
2022/04/24 00:45:35;;;;;;;32.40;25.75;;;9.10;99.80;;;;;;6212312;23;20145;-91
2022/04/24 00:50:47;;;;;;;34.70;26.90;;;9.10;99.60;;;;;;6111613;23;20204;-90
2022/04/24 00:53:14;;;;;;;34.00;26.20;;;9.10;99.70;;;;;;6108336;23;20175;-90
2022/04/24 00:55:48;;;;;;;36.90;26.42;;;9.10;99.80;;;;;;6178094;23;20210;-91
2022/04/24 00:58:18;;;;;;;34.50;25.98;;;9.10;99.80;;;;;;6226528;23;20197;-90
2022/04/24 01:01:41;;;;;;;33.50;25.67;;;9.10;99.80;;;;;;6224577;23;20329;-91
2022/04/24 01:04:11;;;;;;;33.10;26.50;;;9.10;99.40;;;;;;6225598;23;20173;-90
2022/04/24 01:06:59;;;;;;;33.78;26.70;;;9.20;99.60;;;;;;6163911;23;20181;-93
2022/04/24 01:12:54;;;;;;;34.22;26.50;;;9.10;99.60;;;;;;6080950;23;20173;-90
2022/04/24 01:18:38;;;;;;;36.67;28.60;;;9.10;99.50;;;;;;6086865;23;20200;-90
2022/04/24 01:24:30;;;;;;;37.75;27.73;;;9.20;99.50;;;;;;6090560;23;20164;-90
2022/04/24 01:36:28;;;;;;;36.58;28.00;;;9.10;99.80;;;;;;5969907;24;20174;-91
2022/04/24 01:44:35;;;;;;;34.97;27.00;;;9.20;99.60;;;;;;6237977;23;20252;-90
2022/04/24 01:47:05;;;;;;;36.50;27.95;;;9.10;99.60;;;;;;6253459;23;20301;-91
2022/04/24 01:50:16;;;;;;;35.03;27.67;;;9.20;99.60;;;;;;6252947;23;20739;-91
2022/04/24 01:52:43;;;;;;;34.53;27.27;;;9.20;99.50;;;;;;6250811;23;20577;-91
2022/04/24 01:55:23;;;;;;;36.30;28.55;;;9.20;99.30;;;;;;6250526;23;20205;-91
2022/04/24 01:57:54;;;;;;;34.30;27.40;;;9.20;99.40;;;;;;6251510;23;20168;-91
2022/04/24 02:00:22;;;;;;;35.15;27.67;;;9.20;99.40;;;;;;6251311;23;20232;-90
2022/04/24 02:03:11;;;;;;;34.95;27.30;;;9.10;99.50;;;;;;6266952;22;20172;-90
2022/04/24 02:05:41;;;;;;;35.38;27.48;;;9.20;99.40;;;;;;6316491;22;20653;-90
2022/04/24 02:08:11;;;;;;;37.78;27.90;;;9.20;99.10;;;;;;6316061;22;20238;-90
2022/04/24 02:10:38;;;;;;;35.33;27.55;;;9.20;99.10;;;;;;6315959;22;20191;-91
2022/04/24 02:13:13;;;;;;;33.83;26.85;;;9.20;99.20;;;;;;6316244;22;20164;-90
2022/04/24 02:15:53;;;;;;;35.33;27.58;;;9.20;99.20;;;;;;6315224;22;20603;-91
2022/04/24 02:18:52;;;;;;;36.92;27.67;;;9.20;99.20;;;;;;6316180;22;20195;-90
2022/04/24 02:21:35;;;;;;;34.65;26.88;;;9.10;99.30;;;;;;6315633;22;20603;-91
2022/04/24 02:24:05;;;;;;;34.97;27.90;;;9.20;99.50;;;;;;6309775;22;20166;-90
2022/04/24 02:26:59;;;;;;;36.45;28.75;;;9.10;99.40;;;;;;6315581;22;20259;-92
2022/04/24 02:29:48;;;;;;;40.30;29.75;;;9.00;99.50;;;;;;6316907;22;20167;-90
2022/04/24 02:32:15;;;;;;;38.10;28.35;;;9.10;99.60;;;;;;6316147;22;20553;-90
2022/04/24 02:34:42;;;;;;;37.28;28.45;;;9.10;99.60;;;;;;6264812;22;20172;-90
2022/04/24 02:37:17;;;;;;;38.65;29.27;;;9.10;99.60;;;;;;6264555;22;20606;-90
2022/04/24 02:39:44;;;;;;;39.13;29.55;;;9.10;99.60;;;;;;6317159;22;20953;-91
2022/04/24 02:42:31;;;;;;;36.70;28.58;;;9.10;99.60;;;;;;6315824;22;20188;-90
2022/04/24 02:45:12;;;;;;;37.45;28.90;;;9.20;99.30;;;;;;6317007;22;20173;-90
2022/04/24 02:47:59;;;;;;;38.50;29.00;;;9.10;99.40;;;;;;6287557;22;20196;-90
2022/04/24 02:50:29;;;;;;;38.00;28.80;;;9.10;99.40;;;;;;6316063;22;20198;-90
2022/04/24 02:52:59;;;;;;;38.92;29.05;;;9.20;99.50;;;;;;6289199;22;20164;-90
2022/04/24 02:55:35;;;;;;;40.53;29.75;;;9.10;99.30;;;;;;6318838;22;20176;-91
2022/04/24 02:58:02;;;;;;;38.47;29.58;;;9.20;99.40;;;;;;6316139;22;20187;-90
2022/04/24 03:03:47;;;;;;;38.80;29.77;;;9.10;99.60;;;;;;6222671;23;20181;-90
2022/04/24 03:06:17;;;;;;;36.67;28.83;;;9.00;99.40;;;;;;6221037;23;20334;-90
2022/04/24 03:08:44;;;;;;;39.92;30.75;;;9.10;99.50;;;;;;6196758;23;20174;-90
2022/04/24 03:11:23;;;;;;;38.40;29.98;;;9.10;99.30;;;;;;6221261;23;20198;-90
2022/04/24 03:13:53;;;;;;;39.40;30.88;;;9.00;99.30;;;;;;6222142;23;20241;-91
2022/04/24 03:19:11;;;;;;;41.00;30.98;;;8.90;99.60;;;;;;6220177;23;20201;-90
2022/04/24 03:21:41;;;;;;;39.45;31.05;;;9.00;99.60;;;;;;6221528;23;20628;-90
2022/04/24 03:24:11;;;;;;;41.38;31.35;;;8.90;99.60;;;;;;6221145;23;20237;-91
2022/04/24 03:27:22;;;;;;;39.35;31.80;;;8.90;99.70;;;;;;6171515;23;20177;-90
2022/04/24 03:29:53;;;;;;;41.88;31.83;;;8.90;99.80;;;;;;6221053;23;20293;-90
2022/04/24 03:32:24;;;;;;;41.25;31.20;;;8.90;99.70;;;;;;6195980;23;20166;-91
2022/04/24 03:34:52;;;;;;;40.65;30.15;;;9.10;99.70;;;;;;6223659;23;20268;-90
2022/04/24 03:41:28;;;;;;;40.83;30.88;;;9.30;99.20;;;;;;6235562;23;20230;-91
2022/04/24 03:47:48;;;;;;;42.17;31.42;;;9.30;99.40;;;;;;6233919;23;20257;-91
2022/04/24 03:55:59;;;;;;;42.65;30.48;;;9.20;99.90;;;;;;6112841;23;20568;-90
2022/04/24 03:58:30;;;;;;;41.15;29.85;;;9.20;99.90;;;;;;6084798;23;20188;-90
2022/04/24 04:01:39;;;;;;;42.97;31.08;;;9.20;99.90;;;;;;6084935;23;20219;-91
2022/04/24 04:04:25;;;;;;;40.67;30.25;;;9.10;99.90;;;;;;6106673;23;20199;-90
2022/04/24 04:06:53;;;;;;;38.63;29.58;;;9.10;99.90;;;;;;6079788;23;20180;-90
2022/04/24 04:09:47;;;;;;;44.03;31.95;;;9.20;99.90;;;;;;6104574;23;20169;-90
2022/04/24 04:15:11;;;;;;;40.20;30.90;;;9.20;99.90;;;;;;6049771;23;20174;-91
2022/04/24 04:17:53;;;;;;;41.38;30.98;;;9.10;99.90;;;;;;6046933;23;20178;-91
2022/04/24 04:23:05;;;;;;;39.25;30.52;;;9.20;99.90;;;;;;6045360;23;20171;-90
2022/04/24 04:25:32;;;;;;;41.70;30.92;;;9.20;99.90;;;;;;6073865;23;20520;-91
2022/04/24 04:28:17;;;;;;;40.55;31.15;;;9.20;99.90;;;;;;6112309;23;20522;-90
2022/04/24 04:34:06;;;;;;;41.17;30.10;;;9.00;99.90;;;;;;6166540;23;20345;-90
2022/04/24 04:37:16;;;;;;;40.13;30.92;;;9.00;99.90;;;;;;6179045;23;20258;-91
2022/04/24 04:42:47;;;;;;;36.97;28.33;;;9.10;99.90;;;;;;6163120;23;20172;-90
2022/04/24 04:45:49;;;;;;;38.55;29.55;;;9.00;99.90;;;;;;6160848;23;20182;-91
2022/04/24 04:48:29;;;;;;;38.25;29.45;;;9.00;99.90;;;;;;6159796;23;20183;-90
2022/04/24 04:51:16;;;;;;;36.85;27.60;;;9.10;99.90;;;;;;6158636;23;20183;-92
2022/04/24 04:53:55;;;;;;;33.90;27.83;;;9.30;99.90;;;;;;6179755;23;20180;-90
2022/04/24 04:59:18;;;;;;;36.60;27.40;;;9.30;99.90;;;;;;6218416;23;20178;-90
2022/04/24 05:01:47;;;;;;;34.65;26.67;;;9.40;99.90;;;;;;6220175;23;20189;-90
2022/04/24 05:04:23;;;;;;;34.30;26.52;;;9.60;99.50;;;;;;6220047;23;20176;-90
2022/04/24 05:06:50;;;;;;;34.65;25.92;;;9.60;99.30;;;;;;6219430;23;20252;-90
2022/04/24 05:09:24;;;;;;;30.70;24.42;;;9.70;99.10;;;;;;6220250;23;20642;-90
2022/04/24 05:14:34;;;;;;;33.67;25.58;;;9.70;98.80;;;;;;6219791;23;20170;-91
2022/04/24 05:17:01;;;;;;;35.10;25.20;;;9.70;98.80;;;;;;6200112;23;20234;-91
2022/04/24 05:19:28;;;;;;;29.73;24.00;;;9.80;98.70;;;;;;6239261;22;20175;-91
2022/04/24 05:22:06;;;;;;;30.40;23.25;;;9.90;98.30;;;;;;6321225;22;20187;-91
2022/04/24 05:35:19;;;;;;;26.60;21.42;;;10.30;96.80;;;;;;6336793;22;20179;-90
2022/04/24 05:44:53;;;;;;;26.08;21.35;;;10.70;95.90;;;;;;6332997;22;20189;-89
2022/04/24 06:04:21;;;;;;;23.70;19.30;;;11.10;93.80;;;;;;5995607;24;20187;-90
2022/04/24 08:19:34;;;;;;;1.30;1.20;;;14.10;50.40;;;;;;6365143;22;20177;-90
2022/04/24 09:19:48;;;;;;;0.90;0.90;;;15.70;38.10;;;;;;6238014;23;20200;-88
2022/04/24 12:59:59;;;;;;;3.72;0.90;;;14.90;31.90;;;;;;6312063;22;20210;-89
2022/04/24 13:09:49;;;;;;;1.10;0.90;;;14.40;34.70;;;;;;6326466;22;20201;-88
2022/04/24 15:12:04;;;;;;;0.98;0.98;;;12.40;70.00;;;;;;6231973;23;20228;-88
2022/04/24 15:14:39;;;;;;;2.20;1.08;;;12.20;75.30;;;;;;6226650;23;20237;-86
2022/04/24 15:20:36;;;;;;;0.90;0.90;;;12.00;77.70;;;;;;6224060;23;20173;-86
2022/04/24 15:23:06;;;;;;;1.48;0.90;;;11.90;77.20;;;;;;6224421;23;20166;-84
2022/04/24 15:29:14;;;;;;;1.27;0.90;;;11.80;82.10;;;;;;6224506;23;20248;-87
2022/04/24 15:32:29;;;;;;;2.35;1.08;;;11.90;80.60;;;;;;6275699;22;20192;-85
2022/04/24 15:35:23;;;;;;;1.10;1.00;;;11.80;82.00;;;;;;6317942;22;20164;-85
2022/04/24 15:38:00;;;;;;;1.13;1.00;;;11.80;86.20;;;;;;6303237;22;20179;-85
2022/04/24 15:40:28;;;;;;;2.47;1.00;;;11.80;82.50;;;;;;6317315;22;20171;-85
2022/04/24 15:42:55;;;;;;;1.20;1.10;;;11.90;83.80;;;;;;6318398;22;20606;-84
2022/04/24 15:48:57;;;;;;;1.50;1.20;;;12.10;83.90;;;;;;6319585;22;20202;-84
2022/04/24 15:52:25;;;;;;;1.40;1.20;;;12.20;81.50;;;;;;6319433;22;20258;-84
2022/04/24 15:59:09;;;;;;;;;;;;;;;;;;;;;
2022/04/24 16:09:12;;;;;;;2.08;1.70;;;13.10;79.70;;;;;;6262980;22;20172;-88
2022/04/24 16:18:59;;;;;;;1.13;1.02;;;13.10;78.70;;;;;;6263951;22;20265;-87
2022/04/24 16:21:52;;;;;;;1.30;1.20;;;12.60;80.70;;;;;;6322635;22;20183;-86
2022/04/24 16:24:46;;;;;;;1.20;1.10;;;12.40;83.50;;;;;;6321851;22;20172;-87
2022/04/24 16:27:38;;;;;;;1.27;1.17;;;12.30;86.70;;;;;;6323281;22;20180;-86
2022/04/24 16:40:29;;;;;;;1.40;1.25;;;12.70;85.90;;;;;;6319837;22;20207;-86
2022/04/24 16:43:04;;;;;;;3.45;1.83;;;12.60;85.40;;;;;;6316880;22;20168;-86
2022/04/24 16:46:00;;;;;;;1.17;1.00;;;12.50;86.40;;;;;;6319628;22;20193;-86
2022/04/24 16:48:28;;;;;;;1.98;1.52;;;12.40;87.50;;;;;;6319539;22;20470;-86
2022/04/24 16:59:55;;;;;;;3.15;1.40;;;11.70;90.90;;;;;;6162487;23;20177;-86
2022/04/24 17:02:30;;;;;;;2.58;1.10;;;11.60;91.30;;;;;;6163445;23;20215;-86
2022/04/24 17:05:00;;;;;;;5.25;2.60;;;11.50;91.60;;;;;;6162791;23;20258;-86
2022/04/24 17:07:30;;;;;;;2.25;1.13;;;11.30;92.20;;;;;;6162991;23;20211;-86
2022/04/24 17:10:13;;;;;;;3.28;2.70;;;11.30;92.60;;;;;;6162460;23;20179;-86
2022/04/24 17:12:42;;;;;;;4.40;2.30;;;11.20;92.60;;;;;;6160527;23;20694;-86
2022/04/24 17:15:29;;;;;;;1.50;1.10;;;11.10;92.80;;;;;;6160135;23;20534;-86
2022/04/24 17:18:30;;;;;;;3.83;1.70;;;11.00;92.80;;;;;;6160661;23;20206;-87
2022/04/24 17:21:06;;;;;;;2.33;1.98;;;10.90;93.30;;;;;;6159644;23;20215;-86
2022/04/24 17:23:33;;;;;;;2.45;1.80;;;10.80;93.80;;;;;;6159358;23;20262;-86
2022/04/24 17:26:03;;;;;;;3.00;1.58;;;10.70;94.20;;;;;;6159318;23;20215;-86
2022/04/24 17:28:30;;;;;;;7.78;4.15;;;10.70;94.40;;;;;;6159657;23;20180;-85
2022/04/24 17:30:57;;;;;;;4.35;3.30;;;10.60;95.20;;;;;;6177424;23;20174;-86
2022/04/24 17:33:30;;;;;;;3.30;1.75;;;10.60;95.10;;;;;;6196570;23;20228;-86
2022/04/24 17:35:58;;;;;;;3.97;1.85;;;10.60;95.70;;;;;;6221043;23;20244;-86
2022/04/24 17:38:25;;;;;;;2.42;2.17;;;10.50;95.80;;;;;;6314563;22;20206;-88
2022/04/24 17:41:32;;;;;;;2.35;1.73;;;10.40;95.80;;;;;;6316547;22;20198;-86
2022/04/24 17:44:06;;;;;;;2.15;1.75;;;10.50;95.80;;;;;;6316280;22;20156;-87
2022/04/24 17:46:35;;;;;;;1.77;1.50;;;10.50;95.90;;;;;;6316736;22;20296;-86
2022/04/24 17:49:04;;;;;;;1.75;1.40;;;10.40;95.80;;;;;;6314470;22;20170;-86
2022/04/24 17:51:53;;;;;;;1.77;1.42;;;10.40;95.80;;;;;;6311814;22;20235;-88
2022/04/24 17:54:24;;;;;;;1.42;1.25;;;10.40;95.90;;;;;;6313234;22;20251;-84
2022/04/24 17:56:53;;;;;;;1.55;1.30;;;10.40;95.80;;;;;;6312416;22;20544;-84
2022/04/24 17:59:41;;;;;;;1.63;1.30;;;10.40;95.80;;;;;;6312503;22;20382;-86
2022/04/24 18:02:47;;;;;;;1.40;1.20;;;10.30;95.50;;;;;;6315646;22;20204;-86
2022/04/24 18:05:18;;;;;;;1.48;1.23;;;10.20;95.80;;;;;;6315514;22;20191;-86
2022/04/24 18:08:07;;;;;;;1.55;1.15;;;10.20;95.80;;;;;;6314705;22;20171;-87
2022/04/24 18:10:34;;;;;;;4.55;2.25;;;10.30;95.20;;;;;;6315031;22;20164;-86
2022/04/24 18:13:13;;;;;;;2.95;1.20;;;10.30;95.00;;;;;;6291603;22;20195;-86
2022/04/24 18:19:23;;;;;;;1.67;1.08;;;10.10;95.20;;;;;;6315658;22;20167;-86
2022/04/24 18:22:06;;;;;;;2.90;0.93;;;10.10;94.80;;;;;;6316335;22;20156;-86
2022/04/24 18:24:53;;;;;;;1.20;1.10;;;10.00;95.20;;;;;;6314775;22;20184;-86
2022/04/24 18:27:21;;;;;;;1.70;1.40;;;10.00;95.20;;;;;;6315213;22;20243;-86
2022/04/24 18:29:49;;;;;;;2.30;1.35;;;10.00;94.80;;;;;;6315194;22;20160;-85
2022/04/24 18:32:17;;;;;;;2.00;1.30;;;10.10;94.30;;;;;;6316775;22;20418;-86
2022/04/24 18:34:44;;;;;;;1.10;0.90;;;10.00;94.20;;;;;;6313881;22;20222;-86
2022/04/24 18:40:13;;;;;;;0.93;0.90;;;10.10;93.40;;;;;;6316378;22;20203;-86
2022/04/24 18:42:48;;;;;;;0.98;0.95;;;10.00;93.30;;;;;;6314703;22;20475;-86
2022/04/24 18:45:31;;;;;;;0.80;0.80;;;10.00;93.40;;;;;;6315398;22;20646;-86
2022/04/24 18:48:12;;;;;;;1.08;0.98;;;9.90;94.30;;;;;;6344276;22;20277;-86
2022/04/24 18:50:39;;;;;;;0.90;0.90;;;9.90;93.90;;;;;;6345326;22;20846;-86
2022/04/24 18:53:06;;;;;;;19.52;15.77;;;9.90;93.90;;;;;;6345943;22;20237;-86
2022/04/24 18:55:48;;;;;;;22.23;16.15;;;9.90;93.60;;;;;;6347431;22;20191;-86
2022/04/24 18:58:20;;;;;;;7.65;5.80;;;9.90;93.10;;;;;;6319373;22;20177;-86
2022/04/24 19:00:49;;;;;;;1.10;1.00;;;9.90;93.30;;;;;;6348156;22;20171;-86
2022/04/24 19:16:16;;;;;;;0.98;0.88;;;9.80;93.20;;;;;;6220853;23;20250;-87
2022/04/24 19:18:50;;;;;;;1.08;0.98;;;9.80;93.30;;;;;;6221193;23;20174;-87
2022/04/24 19:21:27;;;;;;;0.82;0.77;;;9.70;93.40;;;;;;6197537;23;20502;-86
2022/04/24 19:23:55;;;;;;;0.93;0.93;;;9.80;92.90;;;;;;6220923;23;20260;-87
2022/04/24 19:27:17;;;;;;;0.70;0.70;;;9.80;93.20;;;;;;6219667;23;20167;-86
2022/04/24 19:29:47;;;;;;;1.00;1.00;;;9.80;93.20;;;;;;6218656;23;20232;-86
2022/04/24 19:32:25;;;;;;;1.50;1.40;;;9.70;93.20;;;;;;6220628;23;20677;-86
2022/04/24 19:35:07;;;;;;;0.82;0.82;;;9.80;93.40;;;;;;6220820;23;20196;-87
2022/04/24 19:37:34;;;;;;;1.10;1.00;;;9.80;93.60;;;;;;6220753;23;20181;-86
2022/04/24 19:40:02;;;;;;;0.88;0.88;;;9.80;93.40;;;;;;6219929;23;20228;-86
2022/04/24 19:42:36;;;;;;;1.10;1.08;;;9.80;93.40;;;;;;6194798;23;20166;-86
2022/04/24 19:45:23;;;;;;;0.95;0.95;;;9.80;93.40;;;;;;6344094;22;20181;-86
2022/04/24 19:51:18;;;;;;;0.80;0.80;;;9.80;93.30;;;;;;6336063;22;20159;-87
2022/04/24 19:54:23;;;;;;;0.80;0.80;;;9.60;94.20;;;;;;6359703;22;20184;-87
2022/04/24 20:00:14;;;;;;;0.70;0.70;;;9.50;95.20;;;;;;6352681;22;20460;-86
2022/04/24 20:06:15;;;;;;;1.98;0.90;;;9.30;95.90;;;;;;6347822;22;20189;-87
2022/04/24 20:08:54;;;;;;;1.52;1.25;;;9.40;96.00;;;;;;6346613;22;20610;-86
2022/04/24 20:11:22;;;;;;;1.48;0.90;;;9.30;96.10;;;;;;6346902;22;20191;-87
2022/04/24 20:14:41;;;;;;;0.80;0.80;;;9.30;96.40;;;;;;6346243;22;20206;-86
2022/04/24 20:17:09;;;;;;;0.80;0.80;;;9.20;96.30;;;;;;6345128;22;20166;-86
2022/04/24 20:23:08;;;;;;;2.97;0.90;;;9.10;97.10;;;;;;6345141;22;20664;-87
2022/04/24 20:25:42;;;;;;;1.20;1.10;;;9.00;97.30;;;;;;6345040;22;20587;-86
2022/04/24 20:28:25;;;;;;;0.90;0.90;;;9.00;97.60;;;;;;6345540;22;20538;-86
2022/04/24 20:30:54;;;;;;;1.00;0.90;;;8.90;98.40;;;;;;6345769;22;20156;-86
2022/04/24 20:33:21;;;;;;;1.25;0.93;;;8.80;98.40;;;;;;6345131;22;20191;-86
2022/04/24 20:36:07;;;;;;;1.00;0.90;;;8.80;98.70;;;;;;6345827;22;20175;-86
2022/04/24 20:38:40;;;;;;;0.90;0.90;;;8.90;98.70;;;;;;6346581;22;20190;-86
2022/04/24 20:41:12;;;;;;;1.38;1.25;;;8.80;99.00;;;;;;6318378;22;20167;-86
2022/04/24 20:43:54;;;;;;;1.00;0.90;;;8.80;99.10;;;;;;6345232;22;20171;-86
2022/04/24 20:46:21;;;;;;;0.85;0.80;;;8.70;99.30;;;;;;6346379;22;20540;-87
2022/04/24 20:48:47;;;;;;;1.08;0.80;;;8.70;99.40;;;;;;6346356;22;20211;-86
2022/04/24 20:51:30;;;;;;;0.63;0.63;;;8.70;99.50;;;;;;6345482;22;20163;-85
2022/04/24 20:54:13;;;;;;;1.33;0.85;;;8.80;99.40;;;;;;6344317;22;20183;-86
2022/04/24 20:56:48;;;;;;;1.85;0.90;;;8.70;99.60;;;;;;6343605;22;20179;-86
2022/04/24 20:59:30;;;;;;;2.58;0.82;;;8.70;99.80;;;;;;6343597;22;20190;-86
2022/04/24 21:01:57;;;;;;;1.20;0.90;;;8.60;99.90;;;;;;6345264;22;20191;-87
2022/04/24 21:04:24;;;;;;;1.10;1.00;;;8.60;99.90;;;;;;6345865;22;20194;-86
2022/04/24 21:06:51;;;;;;;0.70;0.70;;;8.70;99.90;;;;;;6350329;22;20224;-87
2022/04/24 21:09:22;;;;;;;3.45;0.90;;;8.60;99.90;;;;;;6350336;22;20444;-87
2022/04/24 21:12:00;;;;;;;0.95;0.95;;;8.70;99.80;;;;;;6348244;22;20166;-87
2022/04/24 21:14:27;;;;;;;1.45;0.82;;;8.70;99.70;;;;;;6347277;22;20183;-87
2022/04/24 21:17:01;;;;;;;1.52;1.00;;;8.70;99.90;;;;;;6320408;22;20232;-87
2022/04/24 21:19:42;;;;;;;1.35;0.80;;;8.70;99.80;;;;;;6349219;22;20165;-86
2022/04/24 21:22:10;;;;;;;0.75;0.75;;;8.70;99.90;;;;;;6349157;22;20226;-87
2022/04/24 21:24:40;;;;;;;0.90;0.90;;;8.80;99.90;;;;;;6348411;22;20159;-87
2022/04/24 21:27:12;;;;;;;1.42;0.70;;;8.70;99.90;;;;;;6320811;22;20171;-87
2022/04/24 21:29:48;;;;;;;1.25;0.88;;;8.70;99.90;;;;;;6351309;22;20174;-87
2022/04/24 21:32:15;;;;;;;0.80;0.80;;;8.80;99.90;;;;;;6350981;22;20194;-87
2022/04/24 21:35:06;;;;;;;5.20;4.47;;;8.80;99.90;;;;;;6324464;22;20216;-87
2022/04/24 21:38:05;;;;;;;0.82;0.70;;;8.90;99.80;;;;;;6350472;22;20159;-87
2022/04/24 21:40:34;;;;;;;1.77;0.82;;;8.90;99.20;;;;;;6349411;22;20217;-87
2022/04/24 21:43:06;;;;;;;0.93;0.73;;;8.90;99.40;;;;;;6350518;22;20238;-87
2022/04/24 21:45:33;;;;;;;29.02;22.05;;;8.90;99.50;;;;;;6351838;22;20227;-87
2022/04/24 21:48:12;;;;;;;5.60;4.03;;;9.00;99.90;;;;;;6351240;22;20179;-87
2022/04/24 21:50:42;;;;;;;6.35;4.88;;;9.10;99.80;;;;;;6351305;22;20266;-86
2022/04/24 21:53:29;;;;;;;1.30;1.20;;;9.30;99.20;;;;;;6350516;22;20179;-87
2022/04/24 21:56:25;;;;;;;2.17;1.20;;;9.20;98.80;;;;;;6349644;22;20235;-88
2022/04/24 21:59:06;;;;;;;5.00;4.47;;;9.20;98.90;;;;;;6350819;22;20215;-87
2022/04/24 22:04:46;;;;;;;6.38;5.35;;;9.30;99.50;;;;;;6356471;22;20159;-87
2022/04/24 22:07:47;;;;;;;4.68;3.88;;;9.40;99.10;;;;;;6356116;22;20159;-88
2022/04/24 22:10:30;;;;;;;1.02;0.90;;;9.40;98.60;;;;;;6356564;22;20178;-86
2022/04/24 22:13:26;;;;;;;2.70;0.93;;;9.30;98.80;;;;;;6355046;22;20235;-86
2022/04/24 22:16:12;;;;;;;1.92;1.70;;;9.30;98.70;;;;;;6353351;22;20176;-86
2022/04/24 22:19:08;;;;;;;2.78;2.17;;;9.20;99.00;;;;;;6355675;22;20160;-86
2022/04/24 22:24:45;;;;;;;1.65;1.55;;;9.20;99.20;;;;;;6353312;22;20158;-86
2022/04/24 22:27:36;;;;;;;1.30;1.20;;;9.20;98.90;;;;;;6352720;22;20168;-87
2022/04/24 22:30:06;;;;;;;3.97;3.50;;;9.20;98.80;;;;;;6351613;22;20171;-86
2022/04/24 22:32:59;;;;;;;6.15;4.30;;;9.20;99.50;;;;;;6353262;22;20167;-87
2022/04/24 22:35:53;;;;;;;2.50;2.30;;;9.20;99.60;;;;;;6326341;22;20197;-87
2022/04/24 22:38:41;;;;;;;3.95;3.55;;;9.20;99.40;;;;;;6355038;22;20198;-86
2022/04/24 22:41:24;;;;;;;2.80;1.90;;;9.40;99.80;;;;;;6354812;22;20171;-86
2022/04/24 22:47:44;;;;;;;2.10;1.55;;;9.20;98.90;;;;;;6355096;22;20214;-87
2022/04/24 22:50:42;;;;;;;3.20;2.55;;;9.20;99.50;;;;;;6327965;22;20179;-87
2022/04/24 22:57:19;;;;;;;1.83;1.70;;;9.30;99.10;;;;;;6353032;22;20155;-87
2022/04/24 23:00:07;;;;;;;1.73;1.63;;;9.30;99.40;;;;;;6353433;22;20626;-88
2022/04/24 23:03:29;;;;;;;0.73;0.73;;;9.30;98.90;;;;;;6353915;22;20167;-87
2022/04/24 23:06:19;;;;;;;2.58;2.20;;;9.30;98.70;;;;;;6353232;22;20234;-89
2022/04/24 23:09:12;;;;;;;0.70;0.70;;;9.20;98.80;;;;;;6354514;22;20164;-86
2022/04/24 23:15:21;;;;;;;2.80;2.55;;;9.20;99.20;;;;;;6354581;22;20654;-87
2022/04/24 23:21:53;;;;;;;1.58;1.20;;;9.30;99.10;;;;;;6353781;22;20276;-87
2022/04/24 23:31:07;;;;;;;0.80;0.80;;;9.10;99.20;;;;;;6352493;22;20167;-87
2022/04/24 23:34:11;;;;;;;0.60;0.60;;;9.00;99.30;;;;;;6353356;22;20233;-86
2022/04/24 23:40:10;;;;;;;1.27;1.17;;;8.90;99.80;;;;;;6352716;22;20170;-88
2022/04/24 23:42:51;;;;;;;1.25;1.23;;;8.90;99.80;;;;;;6353852;22;20174;-86
2022/04/24 23:45:34;;;;;;;1.55;0.70;;;9.00;99.80;;;;;;6325646;22;20529;-87
2022/04/24 23:48:18;;;;;;;0.90;0.90;;;9.00;99.60;;;;;;6354342;22;20254;-87
2022/04/24 23:50:51;;;;;;;0.93;0.93;;;9.10;99.40;;;;;;6325623;22;20175;-86
2022/04/24 23:54:14;;;;;;;0.63;0.63;;;9.00;99.70;;;;;;6353138;22;20191;-87
2022/04/24 23:56:42;;;;;;;1.35;1.25;;;9.10;99.40;;;;;;6352870;22;20486;-87
2022/04/24 23:59:46;;;;;;;1.13;1.10;;;9.20;99.30;;;;;;6353701;22;20587;-86
